< < Back
Terminal Aerodrome Forecast


Current Version              Previous Versions:   1  2  3  4  5  6  7  8  9  

Terminal Aerodrome Forecast

053
FTUS42 KTAE 211700
TAFVLD
TAF
KVLD 211720Z 2118/2218 07006KT P6SM VCSH OVC005
     FM220100 08005KT 4SM -RA BR OVC004
     FM220500 08003KT 2SM -RA BR OVC003
     FM221400 09005KT 6SM -RA BR OVC003=

Latest METAR

807
SAUS70 KWBC 220200 RRN
MTRVLD
METAR KVLD 220153Z AUTO 07004KT 8SM OVC005 12/11 A3006 RMK AO2 RAE46
SLP186 P0001 T01170111 TSNO


USA.gov is the U.S. government's official web portal to all federal, state and local government web resources and services.